sensor_id;sensor_type;location;lat;lon;timestamp;temperature;humidity
421;DHT22;63667;49.046;8.468;2022-11-20T00:01:28;5.50;99.60
421;DHT22;63667;49.046;8.468;2022-11-20T00:03:56;5.40;99.60
421;DHT22;63667;49.046;8.468;2022-11-20T00:06:24;5.40;99.60
421;DHT22;63667;49.046;8.468;2022-11-20T00:08:54;5.50;99.60
421;DHT22;63667;49.046;8.468;2022-11-20T00:11:23;5.50;99.60
421;DHT22;63667;49.046;8.468;2022-11-20T00:13:54;5.50;99.60
421;DHT22;63667;49.046;8.468;2022-11-20T00:16:23;5.50;99.60
421;DHT22;63667;49.046;8.468;2022-11-20T00:18:54;5.50;99.60
421;DHT22;63667;49.046;8.468;2022-11-20T00:21:23;5.60;99.60
421;DHT22;63667;49.046;8.468;2022-11-20T00:23:57;5.60;99.60
421;DHT22;63667;49.046;8.468;2022-11-20T00:26:26;5.80;99.60
421;DHT22;63667;49.046;8.468;2022-11-20T00:28:54;5.70;99.60
421;DHT22;63667;49.046;8.468;2022-11-20T00:31:22;5.90;99.60
421;DHT22;63667;49.046;8.468;2022-11-20T00:33:49;6.00;99.60
421;DHT22;63667;49.046;8.468;2022-11-20T00:36:18;6.00;99.60
421;DHT22;63667;49.046;8.468;2022-11-20T00:38:46;6.10;99.60
421;DHT22;63667;49.046;8.468;2022-11-20T00:41:15;5.90;99.60
421;DHT22;63667;49.046;8.468;2022-11-20T00:43:42;5.90;99.60
421;DHT22;63667;49.046;8.468;2022-11-20T00:46:17;5.80;99.60
421;DHT22;63667;49.046;8.468;2022-11-20T00:48:45;5.80;99.60
421;DHT22;63667;49.046;8.468;2022-11-20T00:51:18;5.90;99.60
421;DHT22;63667;49.046;8.468;2022-11-20T00:53:45;5.80;99.60
421;DHT22;63667;49.046;8.468;2022-11-20T00:56:14;5.70;99.60
421;DHT22;63667;49.046;8.468;2022-11-20T00:58:43;5.80;99.60
421;DHT22;63667;49.046;8.468;2022-11-20T01:01:19;5.80;99.60
421;DHT22;63667;49.046;8.468;2022-11-20T01:03:51;5.80;99.60
421;DHT22;63667;49.046;8.468;2022-11-20T01:06:27;5.80;99.60
421;DHT22;63667;49.046;8.468;2022-11-20T01:08:57;5.90;99.60
421;DHT22;63667;49.046;8.468;2022-11-20T01:11:44;5.80;99.60
421;DHT22;63667;49.046;8.468;2022-11-20T01:14:12;5.80;99.60
421;DHT22;63667;49.046;8.468;2022-11-20T01:16:41;5.90;99.60
421;DHT22;63667;49.046;8.468;2022-11-20T01:19:11;5.80;99.60
421;DHT22;63667;49.046;8.468;2022-11-20T01:21:41;5.90;99.60
421;DHT22;63667;49.046;8.468;2022-11-20T01:24:11;5.90;99.60
421;DHT22;63667;49.046;8.468;2022-11-20T01:26:40;6.00;99.60
421;DHT22;63667;49.046;8.468;2022-11-20T01:29:13;6.00;99.60
421;DHT22;63667;49.046;8.468;2022-11-20T01:31:40;6.10;99.60
421;DHT22;63667;49.046;8.468;2022-11-20T01:34:10;6.10;99.60
421;DHT22;63667;49.046;8.468;2022-11-20T01:36:39;6.10;99.60
421;DHT22;63667;49.046;8.468;2022-11-20T01:39:18;6.20;99.60
421;DHT22;63667;49.046;8.468;2022-11-20T01:41:45;6.10;99.60
421;DHT22;63667;49.046;8.468;2022-11-20T01:45:00;6.10;99.60
421;DHT22;63667;49.046;8.468;2022-11-20T01:47:57;6.10;99.60
421;DHT22;63667;49.046;8.468;2022-11-20T01:50:28;6.10;99.60
421;DHT22;63667;49.046;8.468;2022-11-20T01:53:03;6.20;99.60
421;DHT22;63667;49.046;8.468;2022-11-20T01:55:34;6.10;99.60
421;DHT22;63667;49.046;8.468;2022-11-20T01:58:04;6.20;99.60
421;DHT22;63667;49.046;8.468;2022-11-20T02:00:41;6.20;99.60
421;DHT22;63667;49.046;8.468;2022-11-20T02:03:11;6.20;99.60
421;DHT22;63667;49.046;8.468;2022-11-20T02:08:19;6.30;99.60
421;DHT22;63667;49.046;8.468;2022-11-20T02:10:47;6.50;99.60
421;DHT22;63667;49.046;8.468;2022-11-20T02:13:15;6.60;99.60
421;DHT22;63667;49.046;8.468;2022-11-20T02:16:00;6.60;99.60
421;DHT22;63667;49.046;8.468;2022-11-20T02:18:28;6.70;99.60
421;DHT22;63667;49.046;8.468;2022-11-20T02:21:04;6.80;99.60
421;DHT22;63667;49.046;8.468;2022-11-20T02:26:28;7.00;99.60
421;DHT22;63667;49.046;8.468;2022-11-20T02:28:59;7.00;99.60
421;DHT22;63667;49.046;8.468;2022-11-20T02:31:27;7.20;99.60
421;DHT22;63667;49.046;8.468;2022-11-20T02:33:58;7.20;99.60
421;DHT22;63667;49.046;8.468;2022-11-20T02:36:27;7.30;99.60
421;DHT22;63667;49.046;8.468;2022-11-20T02:38:55;7.30;99.60
421;DHT22;63667;49.046;8.468;2022-11-20T02:41:21;7.30;99.60
421;DHT22;63667;49.046;8.468;2022-11-20T02:43:49;7.30;99.60
421;DHT22;63667;49.046;8.468;2022-11-20T02:46:16;7.40;99.60
421;DHT22;63667;49.046;8.468;2022-11-20T02:48:44;7.40;99.60
421;DHT22;63667;49.046;8.468;2022-11-20T02:51:15;7.50;99.60
421;DHT22;63667;49.046;8.468;2022-11-20T02:53:43;7.50;99.60
421;DHT22;63667;49.046;8.468;2022-11-20T02:56:10;7.50;99.60
421;DHT22;63667;49.046;8.468;2022-11-20T02:58:38;7.60;99.60
421;DHT22;63667;49.046;8.468;2022-11-20T03:01:05;7.50;99.60
421;DHT22;63667;49.046;8.468;2022-11-20T03:03:32;7.60;99.60
421;DHT22;63667;49.046;8.468;2022-11-20T03:06:00;7.60;99.60
421;DHT22;63667;49.046;8.468;2022-11-20T03:08:28;7.70;99.60
421;DHT22;63667;49.046;8.468;2022-11-20T03:10:56;7.60;99.60
421;DHT22;63667;49.046;8.468;2022-11-20T03:13:26;7.70;99.60
421;DHT22;63667;49.046;8.468;2022-11-20T03:15:53;7.70;99.60
421;DHT22;63667;49.046;8.468;2022-11-20T03:18:20;7.70;99.60
421;DHT22;63667;49.046;8.468;2022-11-20T03:20:47;7.60;99.60
421;DHT22;63667;49.046;8.468;2022-11-20T03:23:14;7.70;99.60
421;DHT22;63667;49.046;8.468;2022-11-20T03:25:42;7.60;99.60
421;DHT22;63667;49.046;8.468;2022-11-20T03:28:10;7.70;99.60
421;DHT22;63667;49.046;8.468;2022-11-20T03:30:37;7.70;99.60
421;DHT22;63667;49.046;8.468;2022-11-20T03:33:05;7.70;99.60
421;DHT22;63667;49.046;8.468;2022-11-20T03:35:32;7.70;99.60
421;DHT22;63667;49.046;8.468;2022-11-20T03:38:00;7.70;99.60
421;DHT22;63667;49.046;8.468;2022-11-20T03:40:27;7.70;99.60
421;DHT22;63667;49.046;8.468;2022-11-20T03:42:55;7.70;99.60
421;DHT22;63667;49.046;8.468;2022-11-20T03:45:23;7.70;99.60
421;DHT22;63667;49.046;8.468;2022-11-20T03:47:59;7.70;99.60
421;DHT22;63667;49.046;8.468;2022-11-20T03:50:26;7.60;99.60
421;DHT22;63667;49.046;8.468;2022-11-20T03:52:54;7.60;99.60
421;DHT22;63667;49.046;8.468;2022-11-20T03:55:22;7.60;99.60
421;DHT22;63667;49.046;8.468;2022-11-20T03:57:49;7.70;99.60
421;DHT22;63667;49.046;8.468;2022-11-20T04:00:16;7.70;99.60
421;DHT22;63667;49.046;8.468;2022-11-20T04:02:45;7.70;99.60
421;DHT22;63667;49.046;8.468;2022-11-20T04:05:12;7.70;99.60
421;DHT22;63667;49.046;8.468;2022-11-20T04:07:48;7.70;99.60
421;DHT22;63667;49.046;8.468;2022-11-20T04:10:16;7.70;99.60
421;DHT22;63667;49.046;8.468;2022-11-20T04:12:43;7.80;99.60
421;DHT22;63667;49.046;8.468;2022-11-20T04:15:11;7.80;99.60
421;DHT22;63667;49.046;8.468;2022-11-20T04:17:38;7.80;99.60
421;DHT22;63667;49.046;8.468;2022-11-20T04:20:09;7.80;99.60
421;DHT22;63667;49.046;8.468;2022-11-20T04:22:37;7.80;99.60
421;DHT22;63667;49.046;8.468;2022-11-20T04:25:05;7.80;99.60
421;DHT22;63667;49.046;8.468;2022-11-20T04:27:33;7.80;99.60
421;DHT22;63667;49.046;8.468;2022-11-20T04:30:01;7.80;99.60
421;DHT22;63667;49.046;8.468;2022-11-20T04:32:28;7.80;99.60
421;DHT22;63667;49.046;8.468;2022-11-20T04:34:56;7.80;99.60
421;DHT22;63667;49.046;8.468;2022-11-20T04:37:24;7.80;99.60
421;DHT22;63667;49.046;8.468;2022-11-20T04:39:58;7.80;99.60
421;DHT22;63667;49.046;8.468;2022-11-20T04:42:24;7.80;99.60
421;DHT22;63667;49.046;8.468;2022-11-20T04:44:54;7.80;99.60
421;DHT22;63667;49.046;8.468;2022-11-20T04:47:22;7.80;99.60
421;DHT22;63667;49.046;8.468;2022-11-20T04:49:49;7.80;99.60
421;DHT22;63667;49.046;8.468;2022-11-20T04:52:17;7.80;99.60
421;DHT22;63667;49.046;8.468;2022-11-20T04:54:45;7.80;99.60
421;DHT22;63667;49.046;8.468;2022-11-20T04:57:13;7.80;99.60
421;DHT22;63667;49.046;8.468;2022-11-20T04:59:41;7.80;99.60
421;DHT22;63667;49.046;8.468;2022-11-20T05:02:09;7.80;99.60
421;DHT22;63667;49.046;8.468;2022-11-20T05:04:37;7.80;99.60
421;DHT22;63667;49.046;8.468;2022-11-20T05:07:04;7.80;99.60
421;DHT22;63667;49.046;8.468;2022-11-20T05:09:32;7.80;99.60
421;DHT22;63667;49.046;8.468;2022-11-20T05:11:59;7.80;99.60
421;DHT22;63667;49.046;8.468;2022-11-20T05:14:26;7.80;99.60
421;DHT22;63667;49.046;8.468;2022-11-20T05:16:54;7.80;99.60
421;DHT22;63667;49.046;8.468;2022-11-20T05:19:22;7.80;99.60
421;DHT22;63667;49.046;8.468;2022-11-20T05:21:51;7.80;99.60
421;DHT22;63667;49.046;8.468;2022-11-20T05:24:18;7.70;99.60
421;DHT22;63667;49.046;8.468;2022-11-20T05:26:45;7.80;99.60
421;DHT22;63667;49.046;8.468;2022-11-20T05:29:13;7.80;99.60
421;DHT22;63667;49.046;8.468;2022-11-20T05:31:40;7.70;99.60
421;DHT22;63667;49.046;8.468;2022-11-20T05:34:07;7.70;99.60
421;DHT22;63667;49.046;8.468;2022-11-20T05:36:37;7.70;99.60
421;DHT22;63667;49.046;8.468;2022-11-20T05:39:04;7.70;99.60
421;DHT22;63667;49.046;8.468;2022-11-20T05:41:33;7.70;99.60
421;DHT22;63667;49.046;8.468;2022-11-20T05:44:00;7.70;99.60
421;DHT22;63667;49.046;8.468;2022-11-20T05:46:29;7.70;99.60
421;DHT22;63667;49.046;8.468;2022-11-20T05:48:57;7.70;99.60
421;DHT22;63667;49.046;8.468;2022-11-20T05:51:24;7.70;99.60
421;DHT22;63667;49.046;8.468;2022-11-20T05:53:51;7.70;99.60
421;DHT22;63667;49.046;8.468;2022-11-20T05:56:20;7.80;99.60
421;DHT22;63667;49.046;8.468;2022-11-20T05:58:48;7.80;99.60
421;DHT22;63667;49.046;8.468;2022-11-20T06:01:24;7.80;99.60
421;DHT22;63667;49.046;8.468;2022-11-20T06:03:51;7.80;99.60
421;DHT22;63667;49.046;8.468;2022-11-20T06:06:20;7.70;99.60
421;DHT22;63667;49.046;8.468;2022-11-20T06:08:48;7.80;99.60
421;DHT22;63667;49.046;8.468;2022-11-20T06:11:16;7.80;99.60
421;DHT22;63667;49.046;8.468;2022-11-20T06:13:43;7.70;99.60
421;DHT22;63667;49.046;8.468;2022-11-20T06:16:12;7.70;99.60
421;DHT22;63667;49.046;8.468;2022-11-20T06:18:39;7.80;99.60
421;DHT22;63667;49.046;8.468;2022-11-20T06:21:26;7.80;99.60
421;DHT22;63667;49.046;8.468;2022-11-20T06:23:58;7.80;99.60
421;DHT22;63667;49.046;8.468;2022-11-20T06:26:27;7.80;99.60
421;DHT22;63667;49.046;8.468;2022-11-20T06:28:54;7.80;99.60
421;DHT22;63667;49.046;8.468;2022-11-20T06:31:27;7.90;99.60
421;DHT22;63667;49.046;8.468;2022-11-20T06:33:58;7.90;99.60
421;DHT22;63667;49.046;8.468;2022-11-20T06:36:25;7.90;99.60
421;DHT22;63667;49.046;8.468;2022-11-20T06:38:53;7.90;99.60
421;DHT22;63667;49.046;8.468;2022-11-20T06:41:21;7.90;99.60
421;DHT22;63667;49.046;8.468;2022-11-20T06:43:48;7.90;99.60
421;DHT22;63667;49.046;8.468;2022-11-20T06:46:16;7.90;99.60
421;DHT22;63667;49.046;8.468;2022-11-20T06:48:47;7.90;99.60
421;DHT22;63667;49.046;8.468;2022-11-20T06:51:14;7.90;99.60
421;DHT22;63667;49.046;8.468;2022-11-20T06:53:41;7.90;99.60
421;DHT22;63667;49.046;8.468;2022-11-20T06:56:07;7.90;99.60
421;DHT22;63667;49.046;8.468;2022-11-20T06:58:36;7.90;99.60
421;DHT22;63667;49.046;8.468;2022-11-20T07:01:06;7.90;99.60
421;DHT22;63667;49.046;8.468;2022-11-20T07:03:34;8.00;99.60
421;DHT22;63667;49.046;8.468;2022-11-20T07:06:01;7.90;99.60
421;DHT22;63667;49.046;8.468;2022-11-20T07:08:29;7.90;99.60
421;DHT22;63667;49.046;8.468;2022-11-20T07:11:00;7.90;99.60
421;DHT22;63667;49.046;8.468;2022-11-20T07:13:27;7.90;99.60
421;DHT22;63667;49.046;8.468;2022-11-20T07:15:59;7.90;99.60
421;DHT22;63667;49.046;8.468;2022-11-20T07:18:26;7.90;99.60
421;DHT22;63667;49.046;8.468;2022-11-20T07:20:52;7.90;99.60
421;DHT22;63667;49.046;8.468;2022-11-20T07:23:18;7.90;99.60
421;DHT22;63667;49.046;8.468;2022-11-20T07:25:46;7.90;99.60
421;DHT22;63667;49.046;8.468;2022-11-20T07:28:13;7.90;99.60
421;DHT22;63667;49.046;8.468;2022-11-20T07:30:41;7.90;99.60
421;DHT22;63667;49.046;8.468;2022-11-20T07:33:08;7.90;99.60
421;DHT22;63667;49.046;8.468;2022-11-20T07:35:34;7.80;99.60
421;DHT22;63667;49.046;8.468;2022-11-20T07:38:02;7.70;99.60
421;DHT22;63667;49.046;8.468;2022-11-20T07:40:28;7.60;99.60
421;DHT22;63667;49.046;8.468;2022-11-20T07:42:56;7.60;99.60
421;DHT22;63667;49.046;8.468;2022-11-20T07:45:24;7.60;99.60
421;DHT22;63667;49.046;8.468;2022-11-20T07:47:50;7.60;99.60
421;DHT22;63667;49.046;8.468;2022-11-20T07:50:18;7.50;99.60
421;DHT22;63667;49.046;8.468;2022-11-20T07:52:44;7.60;99.60
421;DHT22;63667;49.046;8.468;2022-11-20T07:55:11;7.60;99.60
421;DHT22;63667;49.046;8.468;2022-11-20T07:57:37;7.60;99.60
421;DHT22;63667;49.046;8.468;2022-11-20T08:00:05;7.60;99.60
421;DHT22;63667;49.046;8.468;2022-11-20T08:02:33;7.70;99.60
421;DHT22;63667;49.046;8.468;2022-11-20T08:05:00;7.70;99.60
421;DHT22;63667;49.046;8.468;2022-11-20T08:07:26;7.60;99.60
421;DHT22;63667;49.046;8.468;2022-11-20T08:09:52;7.60;99.60
421;DHT22;63667;49.046;8.468;2022-11-20T08:12:20;7.60;99.60
421;DHT22;63667;49.046;8.468;2022-11-20T08:15:08;7.60;99.60
421;DHT22;63667;49.046;8.468;2022-11-20T08:17:35;7.60;99.60
421;DHT22;63667;49.046;8.468;2022-11-20T08:20:04;7.60;99.60
421;DHT22;63667;49.046;8.468;2022-11-20T08:22:32;7.70;99.60
421;DHT22;63667;49.046;8.468;2022-11-20T08:24:59;7.60;99.60
421;DHT22;63667;49.046;8.468;2022-11-20T08:27:25;7.70;99.60
421;DHT22;63667;49.046;8.468;2022-11-20T08:29:52;7.70;99.60
421;DHT22;63667;49.046;8.468;2022-11-20T08:32:19;7.80;99.60
421;DHT22;63667;49.046;8.468;2022-11-20T08:34:46;7.80;99.60
421;DHT22;63667;49.046;8.468;2022-11-20T08:37:12;7.80;99.60
421;DHT22;63667;49.046;8.468;2022-11-20T08:39:39;7.80;99.60
421;DHT22;63667;49.046;8.468;2022-11-20T08:42:09;7.90;99.60
421;DHT22;63667;49.046;8.468;2022-11-20T08:44:35;7.80;99.60
421;DHT22;63667;49.046;8.468;2022-11-20T08:47:01;7.90;99.60
421;DHT22;63667;49.046;8.468;2022-11-20T08:49:27;7.90;99.60
421;DHT22;63667;49.046;8.468;2022-11-20T08:51:54;7.90;99.60
421;DHT22;63667;49.046;8.468;2022-11-20T08:54:21;7.90;99.60
421;DHT22;63667;49.046;8.468;2022-11-20T08:56:48;7.90;99.60
421;DHT22;63667;49.046;8.468;2022-11-20T08:59:14;8.00;99.60
421;DHT22;63667;49.046;8.468;2022-11-20T09:01:41;8.00;99.60
421;DHT22;63667;49.046;8.468;2022-11-20T09:04:07;8.10;99.60
421;DHT22;63667;49.046;8.468;2022-11-20T09:06:33;8.00;99.60
421;DHT22;63667;49.046;8.468;2022-11-20T09:09:01;8.10;99.60
421;DHT22;63667;49.046;8.468;2022-11-20T09:11:28;8.10;99.60
421;DHT22;63667;49.046;8.468;2022-11-20T09:13:55;8.00;99.60
421;DHT22;63667;49.046;8.468;2022-11-20T09:16:28;8.00;99.60
421;DHT22;63667;49.046;8.468;2022-11-20T09:18:56;8.00;99.60
421;DHT22;63667;49.046;8.468;2022-11-20T09:21:24;8.00;99.60
421;DHT22;63667;49.046;8.468;2022-11-20T09:23:52;7.90;99.60
421;DHT22;63667;49.046;8.468;2022-11-20T09:26:20;8.00;99.60
421;DHT22;63667;49.046;8.468;2022-11-20T09:28:47;8.00;99.60
421;DHT22;63667;49.046;8.468;2022-11-20T09:31:25;8.00;99.60
421;DHT22;63667;49.046;8.468;2022-11-20T09:33:53;8.00;99.60
421;DHT22;63667;49.046;8.468;2022-11-20T09:36:21;8.10;99.60
421;DHT22;63667;49.046;8.468;2022-11-20T09:38:48;8.20;99.60
421;DHT22;63667;49.046;8.468;2022-11-20T09:46:57;8.30;99.60
421;DHT22;63667;49.046;8.468;2022-11-20T09:54:55;8.30;99.60
421;DHT22;63667;49.046;8.468;2022-11-20T09:57:27;8.30;99.60
421;DHT22;63667;49.046;8.468;2022-11-20T10:00:00;8.40;99.60
421;DHT22;63667;49.046;8.468;2022-11-20T10:02:45;8.30;99.60
421;DHT22;63667;49.046;8.468;2022-11-20T10:05:51;8.30;99.60
421;DHT22;63667;49.046;8.468;2022-11-20T10:09:33;8.20;99.60
421;DHT22;63667;49.046;8.468;2022-11-20T10:17:46;8.10;99.60
421;DHT22;63667;49.046;8.468;2022-11-20T10:21:08;8.20;99.60
421;DHT22;63667;49.046;8.468;2022-11-20T10:26:46;8.20;99.60
421;DHT22;63667;49.046;8.468;2022-11-20T10:29:19;8.30;99.60
421;DHT22;63667;49.046;8.468;2022-11-20T10:31:54;8.50;99.60
421;DHT22;63667;49.046;8.468;2022-11-20T10:35:00;8.50;99.60
421;DHT22;63667;49.046;8.468;2022-11-20T10:37:32;8.50;99.60
421;DHT22;63667;49.046;8.468;2022-11-20T10:40:21;8.50;99.60
421;DHT22;63667;49.046;8.468;2022-11-20T10:43:03;8.70;99.60
421;DHT22;63667;49.046;8.468;2022-11-20T10:46:12;8.90;99.60
421;DHT22;63667;49.046;8.468;2022-11-20T10:48:44;9.00;99.60
421;DHT22;63667;49.046;8.468;2022-11-20T10:51:21;9.00;99.60
421;DHT22;63667;49.046;8.468;2022-11-20T10:56:51;9.10;99.60
421;DHT22;63667;49.046;8.468;2022-11-20T11:02:23;9.10;99.60
421;DHT22;63667;49.046;8.468;2022-11-20T11:04:53;9.00;99.60
421;DHT22;63667;49.046;8.468;2022-11-20T11:07:35;9.00;99.60
421;DHT22;63667;49.046;8.468;2022-11-20T11:10:21;9.00;99.60
421;DHT22;63667;49.046;8.468;2022-11-20T11:12:48;9.10;99.60
421;DHT22;63667;49.046;8.468;2022-11-20T11:15:26;9.20;99.60
421;DHT22;63667;49.046;8.468;2022-11-20T11:17:53;9.30;99.60
421;DHT22;63667;49.046;8.468;2022-11-20T11:20:24;9.40;99.60
421;DHT22;63667;49.046;8.468;2022-11-20T11:22:57;9.60;99.60
421;DHT22;63667;49.046;8.468;2022-11-20T11:27:54;9.60;99.60
421;DHT22;63667;49.046;8.468;2022-11-20T11:30:23;9.60;99.60
421;DHT22;63667;49.046;8.468;2022-11-20T11:33:02;9.70;99.60
421;DHT22;63667;49.046;8.468;2022-11-20T11:35:29;10.00;99.60
421;DHT22;63667;49.046;8.468;2022-11-20T11:38:05;10.70;99.60
421;DHT22;63667;49.046;8.468;2022-11-20T11:40:35;11.10;99.60
421;DHT22;63667;49.046;8.468;2022-11-20T11:43:16;11.20;99.60
421;DHT22;63667;49.046;8.468;2022-11-20T11:48:57;10.90;99.60
421;DHT22;63667;49.046;8.468;2022-11-20T11:51:51;11.20;99.60
421;DHT22;63667;49.046;8.468;2022-11-20T11:54:56;11.00;99.60
421;DHT22;63667;49.046;8.468;2022-11-20T12:00:14;11.10;99.60
421;DHT22;63667;49.046;8.468;2022-11-20T12:05:26;12.10;99.60
421;DHT22;63667;49.046;8.468;2022-11-20T12:08:05;11.50;99.60
421;DHT22;63667;49.046;8.468;2022-11-20T12:13:04;11.00;99.60
421;DHT22;63667;49.046;8.468;2022-11-20T12:15:44;10.70;99.60
421;DHT22;63667;49.046;8.468;2022-11-20T12:18:34;10.70;99.60
421;DHT22;63667;49.046;8.468;2022-11-20T12:23:50;10.40;99.60
421;DHT22;63667;49.046;8.468;2022-11-20T12:38:29;10.50;99.60
421;DHT22;63667;49.046;8.468;2022-11-20T12:53:06;13.50;99.60
421;DHT22;63667;49.046;8.468;2022-11-20T12:58:27;13.50;99.60
421;DHT22;63667;49.046;8.468;2022-11-20T13:01:40;13.90;99.60
421;DHT22;63667;49.046;8.468;2022-11-20T13:07:05;14.20;99.60
421;DHT22;63667;49.046;8.468;2022-11-20T13:09:34;14.10;99.60
421;DHT22;63667;49.046;8.468;2022-11-20T13:12:11;13.80;99.60
421;DHT22;63667;49.046;8.468;2022-11-20T13:17:30;14.00;99.60
421;DHT22;63667;49.046;8.468;2022-11-20T13:20:05;12.20;99.60
421;DHT22;63667;49.046;8.468;2022-11-20T13:27:54;10.70;99.60
421;DHT22;63667;49.046;8.468;2022-11-20T13:30:29;10.60;99.60
421;DHT22;63667;49.046;8.468;2022-11-20T13:33:02;10.50;99.60
421;DHT22;63667;49.046;8.468;2022-11-20T13:35:42;10.40;99.60
421;DHT22;63667;49.046;8.468;2022-11-20T13:38:14;10.60;99.60
421;DHT22;63667;49.046;8.468;2022-11-20T13:40:53;10.60;99.60
421;DHT22;63667;49.046;8.468;2022-11-20T13:43:52;10.50;99.60
421;DHT22;63667;49.046;8.468;2022-11-20T13:46:41;10.50;99.60
421;DHT22;63667;49.046;8.468;2022-11-20T13:49:45;10.50;99.60
421;DHT22;63667;49.046;8.468;2022-11-20T14:00:43;10.90;99.60
421;DHT22;63667;49.046;8.468;2022-11-20T14:03:53;10.90;99.60
421;DHT22;63667;49.046;8.468;2022-11-20T14:07:04;10.50;99.60
421;DHT22;63667;49.046;8.468;2022-11-20T14:09:55;10.30;99.60
421;DHT22;63667;49.046;8.468;2022-11-20T14:12:42;10.30;99.60
421;DHT22;63667;49.046;8.468;2022-11-20T14:15:34;10.40;99.60
421;DHT22;63667;49.046;8.468;2022-11-20T14:18:12;10.20;99.60
421;DHT22;63667;49.046;8.468;2022-11-20T14:21:01;10.20;99.60
421;DHT22;63667;49.046;8.468;2022-11-20T14:23:53;10.10;99.60
421;DHT22;63667;49.046;8.468;2022-11-20T14:26:45;10.00;99.60
421;DHT22;63667;49.046;8.468;2022-11-20T14:29:37;9.90;99.60
421;DHT22;63667;49.046;8.468;2022-11-20T14:32:25;9.80;99.60
421;DHT22;63667;49.046;8.468;2022-11-20T14:35:16;9.90;99.60
421;DHT22;63667;49.046;8.468;2022-11-20T14:38:10;9.90;99.60
421;DHT22;63667;49.046;8.468;2022-11-20T14:41:07;9.90;99.60
421;DHT22;63667;49.046;8.468;2022-11-20T14:43:57;9.80;99.60
421;DHT22;63667;49.046;8.468;2022-11-20T14:47:04;9.70;99.60
421;DHT22;63667;49.046;8.468;2022-11-20T14:49:55;9.70;99.60
421;DHT22;63667;49.046;8.468;2022-11-20T14:52:24;9.70;99.60
421;DHT22;63667;49.046;8.468;2022-11-20T14:55:14;9.60;99.60
421;DHT22;63667;49.046;8.468;2022-11-20T14:57:55;9.70;99.60
421;DHT22;63667;49.046;8.468;2022-11-20T15:00:24;9.60;99.60
421;DHT22;63667;49.046;8.468;2022-11-20T15:02:52;9.60;99.60
421;DHT22;63667;49.046;8.468;2022-11-20T15:05:22;9.50;99.60
421;DHT22;63667;49.046;8.468;2022-11-20T15:08:05;9.60;99.60
421;DHT22;63667;49.046;8.468;2022-11-20T15:10:33;9.50;99.60
421;DHT22;63667;49.046;8.468;2022-11-20T15:13:03;9.50;99.60
421;DHT22;63667;49.046;8.468;2022-11-20T15:15:52;9.40;99.60
421;DHT22;63667;49.046;8.468;2022-11-20T15:18:23;9.40;99.60
421;DHT22;63667;49.046;8.468;2022-11-20T15:20:56;9.40;99.60
421;DHT22;63667;49.046;8.468;2022-11-20T15:23:25;9.40;99.60
421;DHT22;63667;49.046;8.468;2022-11-20T15:25:52;9.30;99.60
421;DHT22;63667;49.046;8.468;2022-11-20T15:30:49;9.30;99.60
421;DHT22;63667;49.046;8.468;2022-11-20T15:33:17;9.20;99.60
421;DHT22;63667;49.046;8.468;2022-11-20T15:35:44;9.20;99.60
421;DHT22;63667;49.046;8.468;2022-11-20T15:38:12;9.20;99.60
421;DHT22;63667;49.046;8.468;2022-11-20T15:40:40;9.20;99.60
421;DHT22;63667;49.046;8.468;2022-11-20T15:43:08;9.20;99.60
421;DHT22;63667;49.046;8.468;2022-11-20T15:45:46;9.20;99.60
421;DHT22;63667;49.046;8.468;2022-11-20T15:48:24;9.20;99.60
421;DHT22;63667;49.046;8.468;2022-11-20T15:53:38;9.20;99.60
421;DHT22;63667;49.046;8.468;2022-11-20T15:56:11;9.20;99.60
421;DHT22;63667;49.046;8.468;2022-11-20T15:58:39;9.20;99.60
421;DHT22;63667;49.046;8.468;2022-11-20T16:01:13;9.20;99.60
421;DHT22;63667;49.046;8.468;2022-11-20T16:03:41;9.20;99.60
421;DHT22;63667;49.046;8.468;2022-11-20T16:06:08;9.10;99.60
421;DHT22;63667;49.046;8.468;2022-11-20T16:08:35;9.10;99.60
421;DHT22;63667;49.046;8.468;2022-11-20T16:11:04;9.10;99.60
421;DHT22;63667;49.046;8.468;2022-11-20T16:13:35;9.20;99.60
421;DHT22;63667;49.046;8.468;2022-11-20T16:16:23;9.20;99.60
421;DHT22;63667;49.046;8.468;2022-11-20T16:18:52;9.20;99.60
421;DHT22;63667;49.046;8.468;2022-11-20T16:21:20;9.20;99.60
421;DHT22;63667;49.046;8.468;2022-11-20T16:23:50;9.10;99.60
421;DHT22;63667;49.046;8.468;2022-11-20T16:26:18;9.20;99.60
421;DHT22;63667;49.046;8.468;2022-11-20T16:28:47;9.20;99.60
421;DHT22;63667;49.046;8.468;2022-11-20T16:31:16;9.20;99.60
421;DHT22;63667;49.046;8.468;2022-11-20T16:33:55;9.20;99.60
421;DHT22;63667;49.046;8.468;2022-11-20T16:36:23;9.20;99.60
421;DHT22;63667;49.046;8.468;2022-11-20T16:38:58;9.20;99.60
421;DHT22;63667;49.046;8.468;2022-11-20T16:41:26;9.30;99.60
421;DHT22;63667;49.046;8.468;2022-11-20T16:43:59;9.20;99.60
421;DHT22;63667;49.046;8.468;2022-11-20T16:46:30;9.20;99.60
421;DHT22;63667;49.046;8.468;2022-11-20T16:49:02;9.20;99.60
421;DHT22;63667;49.046;8.468;2022-11-20T16:51:33;9.20;99.60
421;DHT22;63667;49.046;8.468;2022-11-20T16:54:04;9.20;99.60
421;DHT22;63667;49.046;8.468;2022-11-20T16:56:31;9.20;99.60
421;DHT22;63667;49.046;8.468;2022-11-20T16:58:59;9.20;99.60
421;DHT22;63667;49.046;8.468;2022-11-20T17:01:27;9.20;99.60
421;DHT22;63667;49.046;8.468;2022-11-20T17:03:59;9.20;99.60
421;DHT22;63667;49.046;8.468;2022-11-20T17:06:28;9.10;99.60
421;DHT22;63667;49.046;8.468;2022-11-20T17:08:57;9.00;99.60
421;DHT22;63667;49.046;8.468;2022-11-20T17:11:25;9.10;99.60
421;DHT22;63667;49.046;8.468;2022-11-20T17:13:57;9.00;99.60
421;DHT22;63667;49.046;8.468;2022-11-20T17:16:26;9.00;99.60
421;DHT22;63667;49.046;8.468;2022-11-20T17:19:04;9.00;99.60
421;DHT22;63667;49.046;8.468;2022-11-20T17:21:37;8.90;99.60
421;DHT22;63667;49.046;8.468;2022-11-20T17:24:10;8.80;99.60
421;DHT22;63667;49.046;8.468;2022-11-20T17:26:39;8.80;99.60
421;DHT22;63667;49.046;8.468;2022-11-20T17:29:09;8.70;99.60
421;DHT22;63667;49.046;8.468;2022-11-20T17:31:37;8.70;99.60
421;DHT22;63667;49.046;8.468;2022-11-20T17:34:05;8.60;99.60
421;DHT22;63667;49.046;8.468;2022-11-20T17:36:31;8.60;99.60
421;DHT22;63667;49.046;8.468;2022-11-20T17:38:58;8.60;99.60
421;DHT22;63667;49.046;8.468;2022-11-20T17:41:26;8.60;99.60
421;DHT22;63667;49.046;8.468;2022-11-20T17:43:55;8.60;99.60
421;DHT22;63667;49.046;8.468;2022-11-20T17:46:23;8.60;99.60
421;DHT22;63667;49.046;8.468;2022-11-20T17:48:51;8.60;99.60
421;DHT22;63667;49.046;8.468;2022-11-20T17:51:20;8.60;99.60
421;DHT22;63667;49.046;8.468;2022-11-20T17:53:49;8.60;99.60
421;DHT22;63667;49.046;8.468;2022-11-20T17:56:16;8.60;99.60
421;DHT22;63667;49.046;8.468;2022-11-20T17:59:09;8.60;99.60
421;DHT22;63667;49.046;8.468;2022-11-20T18:01:37;8.60;99.60
421;DHT22;63667;49.046;8.468;2022-11-20T18:04:05;8.60;99.60
421;DHT22;63667;49.046;8.468;2022-11-20T18:06:33;8.50;99.60
421;DHT22;63667;49.046;8.468;2022-11-20T18:09:02;8.50;99.60
421;DHT22;63667;49.046;8.468;2022-11-20T18:11:32;8.40;99.60
421;DHT22;63667;49.046;8.468;2022-11-20T18:14:01;8.30;99.60
421;DHT22;63667;49.046;8.468;2022-11-20T18:16:52;8.30;99.60
421;DHT22;63667;49.046;8.468;2022-11-20T18:19:22;8.20;99.60
421;DHT22;63667;49.046;8.468;2022-11-20T18:21:50;8.10;99.60
421;DHT22;63667;49.046;8.468;2022-11-20T18:24:17;8.00;99.60
421;DHT22;63667;49.046;8.468;2022-11-20T18:26:45;8.00;99.60
421;DHT22;63667;49.046;8.468;2022-11-20T18:29:13;7.80;99.60